Time;durP1;ratioP1;P1;durP2;ratioP2;P2;SDS_P1;SDS_P2;PMS_P1;PMS_P2;Temp;Humidity;BMP_temperature;BMP_pressure;BME280_temperature;BME280_humidity;BME280_pressure;Samples;Min_cycle;Max_cycle;Signal;HPM_P1;HPM_P2
2021/12/11 00:00:33;;;;;;;57.37;21.17;;;2.80;99.90;;;;;;4962681;28;20216;-61
2021/12/11 00:03:04;;;;;;;42.03;16.13;;;2.80;99.90;;;;;;4965070;28;20639;-61
2021/12/11 00:05:32;;;;;;;35.77;15.30;;;2.90;99.90;;;;;;4954735;28;20208;-61
2021/12/11 00:08:00;;;;;;;38.20;16.20;;;2.90;99.90;;;;;;4951965;28;20204;-61
2021/12/11 00:10:32;;;;;;;37.70;15.20;;;2.90;99.90;;;;;;4969976;28;20223;-61
2021/12/11 00:13:03;;;;;;;40.27;15.20;;;2.80;99.90;;;;;;4970821;28;20203;-61
2021/12/11 00:15:34;;;;;;;38.83;15.30;;;2.80;99.90;;;;;;4966605;28;20223;-62
2021/12/11 00:18:05;;;;;;;42.07;16.23;;;2.80;99.90;;;;;;4956278;28;20620;-61
2021/12/11 00:20:37;;;;;;;32.67;14.10;;;2.80;99.90;;;;;;4967991;28;20270;-62
2021/12/11 00:23:06;;;;;;;27.10;11.87;;;2.70;99.90;;;;;;4969701;28;20196;-61
2021/12/11 00:25:42;;;;;;;26.80;11.73;;;2.70;99.90;;;;;;4971224;28;20626;-61
2021/12/11 00:28:10;;;;;;;36.07;13.93;;;2.70;99.90;;;;;;4971544;28;20216;-61
2021/12/11 00:30:42;;;;;;;40.53;15.33;;;2.70;99.90;;;;;;4945459;28;20255;-63
2021/12/11 00:33:12;;;;;;;38.03;15.83;;;2.70;99.90;;;;;;4970677;28;20240;-62
2021/12/11 00:35:40;;;;;;;39.70;15.97;;;2.60;99.90;;;;;;4964579;28;20685;-62
2021/12/11 00:38:10;;;;;;;36.70;15.00;;;2.60;99.90;;;;;;4970784;28;20212;-62
2021/12/11 00:40:42;;;;;;;39.10;15.80;;;2.60;99.90;;;;;;4948703;28;20292;-61
2021/12/11 00:43:15;;;;;;;34.50;14.10;;;2.60;99.90;;;;;;4966527;28;20208;-61
2021/12/11 00:45:43;;;;;;;38.57;15.53;;;2.60;99.90;;;;;;4954089;28;20200;-61
2021/12/11 00:48:13;;;;;;;33.60;13.93;;;2.60;99.90;;;;;;4953708;28;20236;-61
2021/12/11 00:50:45;;;;;;;38.60;15.33;;;2.60;99.90;;;;;;4971749;28;20287;-61
2021/12/11 00:53:14;;;;;;;35.97;14.50;;;2.60;99.90;;;;;;4958271;28;20196;-61
2021/12/11 00:55:47;;;;;;;48.70;18.13;;;2.60;99.90;;;;;;4946067;28;20204;-61
2021/12/11 00:58:20;;;;;;;55.23;20.73;;;2.60;99.90;;;;;;4965911;28;20220;-61
2021/12/11 01:00:50;;;;;;;44.33;17.53;;;2.60;99.90;;;;;;4967819;28;20222;-61
2021/12/11 01:03:22;;;;;;;41.30;16.13;;;2.60;99.90;;;;;;4968654;28;20225;-61
2021/12/11 01:05:53;;;;;;;34.00;14.00;;;2.60;99.90;;;;;;4964346;28;20300;-62
2021/12/11 01:08:27;;;;;;;31.93;13.53;;;2.60;99.90;;;;;;4984104;28;20760;-62
2021/12/11 01:11:09;;;;;;;29.50;12.17;;;2.60;99.90;;;;;;4962613;28;20279;-62
2021/12/11 01:13:40;;;;;;;32.67;13.60;;;2.60;99.90;;;;;;4950934;28;20644;-62
2021/12/11 01:16:13;;;;;;;32.60;13.20;;;2.60;99.90;;;;;;4961028;28;20537;-61
2021/12/11 01:18:42;;;;;;;44.80;18.80;;;2.60;99.90;;;;;;4962495;28;20189;-61
2021/12/11 01:21:32;;;;;;;35.57;15.30;;;2.60;99.90;;;;;;4964283;28;20213;-62
2021/12/11 01:24:14;;;;;;;29.30;12.73;;;2.60;99.90;;;;;;4960434;28;20271;-61
2021/12/11 01:26:47;;;;;;;27.87;12.47;;;2.60;99.90;;;;;;4958156;28;20276;-61
2021/12/11 01:29:16;;;;;;;23.57;10.63;;;2.60;99.90;;;;;;4969478;28;20192;-61
2021/12/11 01:31:43;;;;;;;39.40;16.43;;;2.70;99.90;;;;;;4965127;28;20201;-62
2021/12/11 01:34:11;;;;;;;41.23;16.00;;;2.70;99.90;;;;;;4967530;28;20207;-62
2021/12/11 01:36:40;;;;;;;42.60;18.23;;;2.70;99.90;;;;;;4960130;28;20201;-62
2021/12/11 01:39:12;;;;;;;46.77;18.63;;;2.60;99.90;;;;;;4964807;28;20201;-61
2021/12/11 01:41:40;;;;;;;48.07;20.30;;;2.50;99.90;;;;;;4963701;28;20588;-61
2021/12/11 01:44:13;;;;;;;41.47;16.73;;;2.50;99.90;;;;;;4960798;28;20287;-62
2021/12/11 01:46:41;;;;;;;40.37;17.23;;;2.40;99.90;;;;;;4963625;28;20196;-62
2021/12/11 01:49:14;;;;;;;43.97;18.67;;;2.40;99.90;;;;;;4966109;28;20231;-62
2021/12/11 01:51:45;;;;;;;47.27;19.10;;;2.40;99.90;;;;;;4964733;28;20662;-62
2021/12/11 01:54:21;;;;;;;41.40;17.73;;;2.40;99.90;;;;;;4959452;28;20200;-62
2021/12/11 01:56:58;;;;;;;37.73;16.00;;;2.40;99.90;;;;;;4953898;28;20201;-62
2021/12/11 01:59:30;;;;;;;49.43;19.13;;;2.40;99.90;;;;;;4964395;28;20688;-62
2021/12/11 02:02:03;;;;;;;41.27;17.47;;;2.40;99.90;;;;;;4962190;28;20204;-61
2021/12/11 02:04:37;;;;;;;47.43;19.47;;;2.40;99.90;;;;;;4960034;28;20198;-62
2021/12/11 02:07:07;;;;;;;46.67;17.63;;;2.40;99.90;;;;;;4960841;28;20201;-61
2021/12/11 02:09:37;;;;;;;35.53;14.70;;;2.40;99.90;;;;;;4964540;28;20224;-62
2021/12/11 02:12:10;;;;;;;35.63;14.40;;;2.40;99.90;;;;;;4944121;28;20200;-62
2021/12/11 02:14:45;;;;;;;33.73;15.80;;;2.40;99.90;;;;;;4964284;28;20819;-62
2021/12/11 02:17:18;;;;;;;51.40;19.03;;;2.40;99.90;;;;;;4961811;28;20231;-62
2021/12/11 02:19:48;;;;;;;38.93;16.07;;;2.40;99.90;;;;;;4967847;28;20195;-62
2021/12/11 02:22:19;;;;;;;41.30;17.90;;;2.40;99.90;;;;;;4968228;28;20201;-62
2021/12/11 02:24:49;;;;;;;41.23;16.37;;;2.40;99.90;;;;;;4963746;28;20196;-62
2021/12/11 02:27:20;;;;;;;33.10;13.90;;;2.40;99.90;;;;;;4962714;28;20729;-62
2021/12/11 02:29:53;;;;;;;29.23;12.83;;;2.40;99.90;;;;;;4957164;28;20566;-62
2021/12/11 02:32:29;;;;;;;38.53;14.67;;;2.40;99.90;;;;;;4969536;28;20224;-62
2021/12/11 02:35:00;;;;;;;35.87;15.13;;;2.50;99.90;;;;;;4964565;28;21169;-62
2021/12/11 02:37:37;;;;;;;32.47;14.30;;;2.50;99.90;;;;;;4966965;28;20206;-62
2021/12/11 02:40:16;;;;;;;30.10;12.50;;;2.30;99.90;;;;;;4967550;28;20230;-62
2021/12/11 02:42:50;;;;;;;49.87;19.17;;;2.50;99.90;;;;;;4946896;28;20288;-61
2021/12/11 02:45:21;;;;;;;44.97;18.50;;;2.50;99.90;;;;;;4936823;29;20622;-62
2021/12/11 02:47:51;;;;;;;43.23;19.20;;;2.50;99.90;;;;;;4934969;28;20427;-63
2021/12/11 02:50:24;;;;;;;46.27;20.43;;;2.40;99.90;;;;;;4944341;28;20197;-62
2021/12/11 02:52:59;;;;;;;42.07;18.70;;;2.40;99.90;;;;;;4958131;28;20198;-62
2021/12/11 02:55:32;;;;;;;41.37;16.43;;;2.30;99.90;;;;;;4965098;28;20215;-62
2021/12/11 02:58:05;;;;;;;38.43;16.33;;;2.20;99.90;;;;;;4961757;28;20197;-63
2021/12/11 03:00:36;;;;;;;45.50;17.97;;;2.20;99.90;;;;;;4958112;28;20208;-63
2021/12/11 03:03:07;;;;;;;46.80;18.70;;;2.20;99.90;;;;;;4962085;28;20655;-61
2021/12/11 03:05:42;;;;;;;37.03;16.27;;;2.20;99.90;;;;;;4962206;28;20224;-62
2021/12/11 03:08:13;;;;;;;40.40;15.57;;;2.20;99.90;;;;;;4953309;28;20275;-61
2021/12/11 03:10:43;;;;;;;45.30;18.83;;;2.30;99.90;;;;;;4960681;28;20208;-62
2021/12/11 03:13:10;;;;;;;48.37;19.93;;;2.30;99.90;;;;;;4966290;28;20209;-61
2021/12/11 03:15:38;;;;;;;47.60;18.40;;;2.20;99.90;;;;;;4948659;28;20212;-61
2021/12/11 03:18:07;;;;;;;39.87;16.83;;;2.20;99.90;;;;;;4956566;28;20296;-62
2021/12/11 03:20:36;;;;;;;34.70;14.57;;;2.20;99.90;;;;;;4967743;28;20235;-60
2021/12/11 03:23:04;;;;;;;45.93;18.47;;;2.20;99.90;;;;;;4944260;28;20638;-62
2021/12/11 03:25:32;;;;;;;36.83;16.23;;;2.20;99.90;;;;;;4964461;28;20197;-63
2021/12/11 03:28:03;;;;;;;43.90;17.53;;;2.20;99.90;;;;;;4958775;28;20204;-62
2021/12/11 03:30:38;;;;;;;42.37;17.63;;;2.20;99.90;;;;;;4957685;28;20228;-63
2021/12/11 03:33:09;;;;;;;35.30;14.83;;;2.10;99.90;;;;;;4963876;28;20196;-62
2021/12/11 03:35:38;;;;;;;32.17;14.47;;;2.20;99.90;;;;;;4960814;28;20201;-63
2021/12/11 03:38:07;;;;;;;28.87;11.60;;;2.20;99.90;;;;;;4959921;28;20269;-63
2021/12/11 03:40:36;;;;;;;28.60;11.23;;;2.20;99.90;;;;;;4963524;28;20209;-62
2021/12/11 03:43:07;;;;;;;28.80;12.47;;;2.20;99.90;;;;;;4935728;28;20687;-63
2021/12/11 03:45:37;;;;;;;33.83;13.43;;;2.30;99.90;;;;;;4957127;28;20271;-62
2021/12/11 03:48:09;;;;;;;55.37;22.63;;;2.30;99.90;;;;;;4961010;28;20227;-62
2021/12/11 03:50:36;;;;;;;51.97;21.90;;;2.30;99.90;;;;;;4968013;28;20184;-62
2021/12/11 03:53:04;;;;;;;54.37;21.77;;;2.20;99.90;;;;;;4954280;28;20566;-63
2021/12/11 03:55:37;;;;;;;49.43;19.87;;;2.20;99.90;;;;;;4952209;28;20662;-62
2021/12/11 03:58:07;;;;;;;42.50;17.03;;;2.20;99.90;;;;;;4951775;28;20803;-62
2021/12/11 04:00:38;;;;;;;43.60;18.23;;;2.10;99.90;;;;;;4946122;28;20698;-63
2021/12/11 04:03:08;;;;;;;40.30;17.77;;;2.20;99.90;;;;;;4957454;28;20212;-64
2021/12/11 04:05:38;;;;;;;42.80;18.13;;;2.20;99.90;;;;;;4961469;28;20565;-63
2021/12/11 04:08:06;;;;;;;40.67;18.80;;;2.20;99.90;;;;;;4954324;28;20239;-63
2021/12/11 04:10:34;;;;;;;49.63;20.67;;;2.20;99.90;;;;;;4952926;28;20621;-63
2021/12/11 04:13:06;;;;;;;43.27;19.43;;;2.20;99.90;;;;;;4958296;28;20204;-63
2021/12/11 04:15:34;;;;;;;32.33;14.57;;;2.20;99.90;;;;;;4959406;28;20278;-63
2021/12/11 04:18:01;;;;;;;33.17;15.00;;;2.20;99.90;;;;;;4940619;28;20209;-62
2021/12/11 04:20:30;;;;;;;39.47;16.73;;;2.20;99.90;;;;;;4950847;28;20221;-61
2021/12/11 04:22:58;;;;;;;38.73;15.27;;;2.20;99.90;;;;;;4961399;28;20228;-63
2021/12/11 04:25:27;;;;;;;29.53;12.83;;;2.20;99.90;;;;;;4943542;28;20301;-62
2021/12/11 04:27:56;;;;;;;21.37;10.27;;;2.20;99.90;;;;;;4943631;28;20197;-62
2021/12/11 04:30:27;;;;;;;25.30;11.47;;;2.20;99.90;;;;;;4961240;28;20197;-62
2021/12/11 04:32:55;;;;;;;24.20;11.03;;;2.20;99.90;;;;;;4958510;28;20204;-62
2021/12/11 04:35:27;;;;;;;24.57;11.23;;;2.20;99.90;;;;;;4957277;28;20666;-63
2021/12/11 04:37:54;;;;;;;35.77;13.90;;;2.20;99.90;;;;;;4961592;28;20565;-63
2021/12/11 04:40:25;;;;;;;34.80;15.80;;;2.20;99.90;;;;;;4964549;28;20541;-61
2021/12/11 04:42:58;;;;;;;39.83;15.37;;;2.20;99.90;;;;;;4962622;28;20199;-61
2021/12/11 04:45:33;;;;;;;29.57;13.17;;;2.20;99.90;;;;;;4954315;28;20228;-63
2021/12/11 04:48:09;;;;;;;28.67;13.00;;;2.20;99.90;;;;;;4962118;28;20557;-63
2021/12/11 04:50:44;;;;;;;27.07;12.00;;;2.10;99.90;;;;;;4951353;28;20679;-62
2021/12/11 04:53:27;;;;;;;27.80;12.60;;;2.20;99.90;;;;;;4970982;28;20214;-62
2021/12/11 04:56:15;;;;;;;39.67;16.47;;;2.20;99.90;;;;;;4973180;28;20736;-63
2021/12/11 04:58:57;;;;;;;47.23;18.87;;;2.10;99.90;;;;;;4946881;28;20203;-63
2021/12/11 05:01:39;;;;;;;44.43;18.70;;;2.10;99.90;;;;;;4948284;28;20239;-62
2021/12/11 05:07:00;;;;;;;49.40;20.60;;;2.20;99.90;;;;;;4937648;28;20254;-62
2021/12/11 05:09:36;;;;;;;40.57;18.00;;;2.20;99.90;;;;;;4966851;28;20204;-63
2021/12/11 05:12:12;;;;;;;40.73;17.40;;;2.10;99.90;;;;;;4953408;28;20271;-63
2021/12/11 05:14:40;;;;;;;38.43;16.77;;;2.20;99.90;;;;;;4948838;28;20236;-63
2021/12/11 05:17:10;;;;;;;36.23;15.97;;;2.20;99.90;;;;;;4956334;28;20193;-64
2021/12/11 05:19:38;;;;;;;45.00;19.70;;;2.20;99.90;;;;;;4966734;28;20207;-63
2021/12/11 05:22:07;;;;;;;44.40;18.70;;;2.20;99.90;;;;;;4963185;28;20216;-63
2021/12/11 05:24:37;;;;;;;55.00;22.03;;;2.20;99.90;;;;;;4949018;28;20223;-62
2021/12/11 05:27:05;;;;;;;42.57;17.70;;;2.20;99.90;;;;;;4963371;28;20204;-63
2021/12/11 05:29:33;;;;;;;38.90;17.53;;;2.20;99.90;;;;;;4975852;28;20213;-64
2021/12/11 05:32:01;;;;;;;31.23;14.17;;;2.20;99.90;;;;;;4939125;29;20300;-62
2021/12/11 05:34:30;;;;;;;24.53;11.83;;;2.20;99.90;;;;;;4957615;28;20293;-63
2021/12/11 05:36:57;;;;;;;20.63;9.60;;;2.20;99.90;;;;;;4960506;28;20197;-63
2021/12/11 05:39:24;;;;;;;38.00;16.27;;;2.20;99.90;;;;;;4953558;29;20204;-62
2021/12/11 05:41:52;;;;;;;57.37;23.07;;;2.20;99.90;;;;;;4957346;28;20271;-63
2021/12/11 05:44:21;;;;;;;63.03;23.03;;;2.20;99.90;;;;;;4934636;29;20202;-64
2021/12/11 05:46:50;;;;;;;62.60;24.00;;;2.10;99.90;;;;;;4944550;28;20204;-63
2021/12/11 05:49:17;;;;;;;46.90;19.23;;;2.10;99.90;;;;;;4950326;28;20643;-62
2021/12/11 05:51:48;;;;;;;36.60;15.73;;;2.00;99.90;;;;;;4952904;28;20619;-62
2021/12/11 05:54:21;;;;;;;45.33;17.77;;;2.00;99.90;;;;;;4963905;28;20201;-62
2021/12/11 05:56:48;;;;;;;33.03;14.63;;;2.00;99.90;;;;;;4961672;28;20196;-62
2021/12/11 05:59:18;;;;;;;31.67;13.87;;;2.00;99.90;;;;;;4938810;29;20293;-62
2021/12/11 06:01:49;;;;;;;31.53;13.53;;;2.00;99.90;;;;;;4958980;28;20216;-62
2021/12/11 06:04:20;;;;;;;28.87;12.73;;;2.00;99.90;;;;;;4956890;28;20204;-61
2021/12/11 06:06:49;;;;;;;24.03;11.20;;;2.00;99.90;;;;;;4959760;28;20196;-62
2021/12/11 06:09:19;;;;;;;21.93;10.03;;;2.10;99.90;;;;;;4956920;28;20247;-61
2021/12/11 06:11:50;;;;;;;22.97;9.93;;;2.10;99.90;;;;;;4969434;28;20389;-61
2021/12/11 06:14:18;;;;;;;41.17;18.70;;;2.10;99.90;;;;;;4965152;28;20255;-62
2021/12/11 06:16:45;;;;;;;43.73;18.60;;;2.20;99.90;;;;;;4969221;28;20632;-62
2021/12/11 06:19:12;;;;;;;42.80;17.97;;;2.20;99.90;;;;;;4963988;28;20200;-62
2021/12/11 06:21:43;;;;;;;35.90;16.27;;;2.20;99.90;;;;;;4970028;28;20216;-62
2021/12/11 06:24:11;;;;;;;47.57;18.40;;;2.20;99.90;;;;;;4966421;28;20197;-63
2021/12/11 06:26:39;;;;;;;54.73;21.23;;;2.20;99.90;;;;;;4955435;28;20205;-63
2021/12/11 06:29:06;;;;;;;53.47;20.43;;;2.20;99.90;;;;;;4963737;28;20197;-62
2021/12/11 06:31:34;;;;;;;55.10;22.07;;;2.20;99.90;;;;;;4953353;28;20199;-62
2021/12/11 06:34:01;;;;;;;44.53;18.30;;;2.10;99.90;;;;;;4972281;28;20200;-62
2021/12/11 06:36:29;;;;;;;50.77;20.37;;;2.00;99.90;;;;;;4969149;28;20204;-64
2021/12/11 06:39:01;;;;;;;42.00;18.80;;;1.90;99.90;;;;;;4970168;28;20220;-62
2021/12/11 06:41:33;;;;;;;36.67;16.03;;;1.90;99.90;;;;;;4965515;28;20213;-62
2021/12/11 06:44:00;;;;;;;57.77;21.77;;;1.80;99.90;;;;;;4961355;28;20211;-63
2021/12/11 06:46:30;;;;;;;52.17;20.70;;;1.80;99.90;;;;;;4966910;28;20192;-62
2021/12/11 06:48:57;;;;;;;52.83;20.40;;;1.70;99.90;;;;;;4965523;28;20240;-63
2021/12/11 06:51:25;;;;;;;55.40;20.70;;;1.60;99.90;;;;;;4960574;28;20717;-63
2021/12/11 06:53:54;;;;;;;55.67;22.17;;;1.60;99.90;;;;;;4963672;28;20245;-63
2021/12/11 06:56:23;;;;;;;53.13;20.00;;;1.50;99.90;;;;;;4966446;28;20192;-63
2021/12/11 06:58:53;;;;;;;49.33;18.80;;;1.50;99.90;;;;;;4966531;28;20196;-63
2021/12/11 07:01:23;;;;;;;42.60;17.73;;;1.50;99.90;;;;;;4968559;28;20220;-64
2021/12/11 07:03:51;;;;;;;53.80;20.97;;;1.50;99.90;;;;;;4961221;28;20279;-65
2021/12/11 07:06:18;;;;;;;45.53;17.47;;;1.50;99.90;;;;;;4961500;28;20201;-62
2021/12/11 07:08:47;;;;;;;54.23;21.50;;;1.50;99.90;;;;;;4956113;28;20674;-62
2021/12/11 07:11:15;;;;;;;50.70;21.00;;;1.50;99.90;;;;;;4957283;28;20298;-62
2021/12/11 07:13:43;;;;;;;57.13;21.53;;;1.50;99.90;;;;;;4957721;28;20646;-63
2021/12/11 07:16:13;;;;;;;57.13;20.80;;;1.50;99.90;;;;;;4962563;28;20204;-63
2021/12/11 07:18:40;;;;;;;58.73;22.23;;;1.40;99.90;;;;;;4953837;28;20201;-62
2021/12/11 07:21:08;;;;;;;60.93;22.17;;;1.40;99.90;;;;;;4957646;28;20197;-62
2021/12/11 07:23:37;;;;;;;52.93;19.87;;;1.40;99.90;;;;;;4951556;28;20216;-63
2021/12/11 07:26:13;;;;;;;60.03;21.80;;;1.40;99.90;;;;;;4949590;28;20209;-62
2021/12/11 07:28:40;;;;;;;54.93;20.13;;;1.50;99.90;;;;;;4948328;28;20227;-62
2021/12/11 07:31:08;;;;;;;69.80;24.77;;;1.50;99.90;;;;;;4951418;28;20193;-62
2021/12/11 07:33:37;;;;;;;58.13;21.43;;;1.50;99.90;;;;;;4951788;28;20263;-62
2021/12/11 07:36:05;;;;;;;60.17;22.20;;;1.50;99.90;;;;;;4967163;28;20192;-63
2021/12/11 07:38:33;;;;;;;63.33;22.17;;;1.60;99.90;;;;;;4961335;28;20561;-63
2021/12/11 07:41:04;;;;;;;53.63;20.23;;;1.60;99.90;;;;;;4967431;28;20209;-64
2021/12/11 07:43:31;;;;;;;41.73;17.20;;;1.60;99.90;;;;;;4964970;28;20232;-63
2021/12/11 07:45:59;;;;;;;34.23;14.33;;;1.60;99.90;;;;;;4942830;28;20212;-62
2021/12/11 07:48:27;;;;;;;31.60;13.20;;;1.60;99.90;;;;;;4964866;28;20244;-64
2021/12/11 07:50:56;;;;;;;38.03;15.47;;;1.70;99.90;;;;;;4960224;28;20196;-62
2021/12/11 07:53:24;;;;;;;58.70;21.50;;;1.70;99.90;;;;;;4960646;28;20574;-63
2021/12/11 07:55:53;;;;;;;66.57;24.67;;;1.80;99.90;;;;;;4950427;28;20654;-63
2021/12/11 07:58:20;;;;;;;55.83;21.23;;;1.80;99.90;;;;;;4969055;28;20274;-63
2021/12/11 08:00:48;;;;;;;42.67;17.13;;;1.70;99.90;;;;;;4960929;28;20197;-64
2021/12/11 08:03:18;;;;;;;43.20;15.90;;;1.70;99.90;;;;;;4948939;28;20219;-63
2021/12/11 08:05:48;;;;;;;31.00;13.60;;;1.70;99.90;;;;;;4958053;28;20832;-62
2021/12/11 08:08:18;;;;;;;30.10;12.53;;;1.80;99.90;;;;;;4958077;28;20196;-63
2021/12/11 08:10:47;;;;;;;30.00;11.53;;;1.80;99.90;;;;;;4951476;28;20201;-61
2021/12/11 08:13:15;;;;;;;27.67;12.03;;;1.90;99.90;;;;;;4951726;28;20212;-63
2021/12/11 08:15:43;;;;;;;27.50;11.87;;;1.90;99.90;;;;;;4957587;28;20578;-61
2021/12/11 08:18:12;;;;;;;33.00;13.40;;;1.90;99.90;;;;;;4961853;28;20196;-61
2021/12/11 08:20:42;;;;;;;28.83;11.30;;;2.00;99.90;;;;;;4971776;28;20192;-62
2021/12/11 08:23:11;;;;;;;30.83;12.57;;;1.90;99.90;;;;;;4962593;28;20237;-62
2021/12/11 08:25:42;;;;;;;32.47;13.37;;;1.90;99.90;;;;;;4972744;28;20222;-62
2021/12/11 08:28:13;;;;;;;38.90;15.77;;;1.90;99.90;;;;;;4969205;28;20203;-61
2021/12/11 08:30:43;;;;;;;47.90;17.73;;;1.90;99.90;;;;;;4967078;28;20200;-62
2021/12/11 08:33:11;;;;;;;46.87;18.13;;;1.90;99.90;;;;;;4947951;29;20240;-62
2021/12/11 08:35:38;;;;;;;36.40;14.83;;;1.90;99.90;;;;;;4968507;28;20201;-62
2021/12/11 08:38:08;;;;;;;33.77;14.30;;;1.90;99.90;;;;;;4958532;28;20196;-62
2021/12/11 08:40:42;;;;;;;44.50;17.87;;;1.80;99.90;;;;;;4961858;28;20220;-62
2021/12/11 08:43:11;;;;;;;40.77;16.03;;;1.80;99.90;;;;;;4968152;28;20212;-63
2021/12/11 08:45:48;;;;;;;54.50;19.87;;;1.90;99.90;;;;;;4956776;28;20204;-61
2021/12/11 08:48:21;;;;;;;59.67;21.00;;;1.90;99.90;;;;;;4961273;28;20237;-62
2021/12/11 08:50:51;;;;;;;47.43;19.50;;;1.90;99.90;;;;;;4961372;28;20203;-62
2021/12/11 08:53:20;;;;;;;47.00;16.87;;;1.90;99.90;;;;;;4956461;28;20197;-63
2021/12/11 08:55:54;;;;;;;72.57;23.90;;;1.90;99.90;;;;;;4964894;28;20692;-62
2021/12/11 08:58:22;;;;;;;54.07;21.07;;;1.90;99.90;;;;;;4942742;29;20211;-64
2021/12/11 09:00:54;;;;;;;62.97;23.17;;;1.90;99.90;;;;;;4964728;28;20196;-64
2021/12/11 09:03:24;;;;;;;55.27;20.13;;;1.80;99.90;;;;;;4957447;28;20209;-63
2021/12/11 09:05:55;;;;;;;47.07;18.10;;;1.80;99.90;;;;;;4958217;28;20200;-62
2021/12/11 09:08:25;;;;;;;36.57;14.57;;;1.80;99.90;;;;;;4938678;29;20690;-62
2021/12/11 09:10:57;;;;;;;71.70;24.93;;;1.80;99.90;;;;;;4950479;28;20678;-63
2021/12/11 09:13:29;;;;;;;63.67;23.03;;;1.80;99.90;;;;;;4942765;28;20200;-63
2021/12/11 09:16:00;;;;;;;51.23;21.10;;;1.80;99.90;;;;;;4965657;28;20197;-63
2021/12/11 09:18:33;;;;;;;42.20;17.93;;;1.80;99.90;;;;;;4966505;28;20227;-63
2021/12/11 09:21:04;;;;;;;45.43;17.00;;;1.80;99.90;;;;;;4974550;28;20225;-63
2021/12/11 09:23:37;;;;;;;39.97;16.87;;;1.90;99.90;;;;;;4945082;28;20221;-62
2021/12/11 09:26:10;;;;;;;54.20;20.03;;;1.90;99.90;;;;;;4964966;28;20209;-62
2021/12/11 09:28:41;;;;;;;60.70;22.87;;;2.00;99.90;;;;;;4948826;28;20228;-62
2021/12/11 09:31:16;;;;;;;45.43;17.00;;;2.00;99.90;;;;;;4950591;28;20661;-62
2021/12/11 09:33:48;;;;;;;33.80;14.70;;;1.90;99.90;;;;;;4954016;28;20196;-62
2021/12/11 09:36:20;;;;;;;33.17;13.03;;;1.90;99.90;;;;;;4974559;28;20244;-63
2021/12/11 09:38:51;;;;;;;37.77;14.37;;;1.80;99.90;;;;;;4965162;28;20224;-63
2021/12/11 09:41:21;;;;;;;29.70;12.03;;;1.80;99.90;;;;;;4943230;29;20610;-62
2021/12/11 09:43:56;;;;;;;28.33;11.90;;;1.80;99.90;;;;;;4954289;28;20285;-63
2021/12/11 09:46:27;;;;;;;31.67;12.27;;;1.80;99.90;;;;;;4964007;28;20661;-65
2021/12/11 09:48:56;;;;;;;30.37;12.20;;;1.90;99.90;;;;;;4962588;28;20267;-63
2021/12/11 09:51:30;;;;;;;31.27;12.23;;;1.90;99.90;;;;;;4964214;28;20259;-63
2021/12/11 09:54:01;;;;;;;26.10;10.77;;;1.90;99.90;;;;;;4966921;28;20240;-61
2021/12/11 09:56:34;;;;;;;31.67;12.53;;;1.90;99.90;;;;;;4964463;28;20665;-61
2021/12/11 09:59:07;;;;;;;52.33;19.53;;;2.00;99.90;;;;;;4952047;28;20627;-61
2021/12/11 10:01:38;;;;;;;43.67;17.33;;;2.10;99.90;;;;;;4962349;28;20200;-62
2021/12/11 10:04:10;;;;;;;69.37;25.33;;;2.00;99.90;;;;;;4962190;28;20287;-63
2021/12/11 10:06:50;;;;;;;70.80;24.40;;;2.10;99.90;;;;;;4950577;28;20199;-64
2021/12/11 10:09:19;;;;;;;86.43;26.80;;;2.00;99.90;;;;;;4952215;28;20203;-63
2021/12/11 10:11:54;;;;;;;83.57;26.13;;;2.00;99.90;;;;;;4947175;29;20205;-62
2021/12/11 10:14:27;;;;;;;63.67;24.17;;;2.00;99.90;;;;;;4953048;28;20191;-53
2021/12/11 10:16:58;;;;;;;74.77;24.27;;;1.90;99.90;;;;;;4952415;28;20197;-56
2021/12/11 10:19:29;;;;;;;60.93;21.53;;;1.90;99.90;;;;;;4949117;28;20193;-53
2021/12/11 10:22:05;;;;;;;40.97;15.30;;;1.90;99.90;;;;;;4952749;28;20248;-54
2021/12/11 10:24:35;;;;;;;80.40;26.10;;;1.90;99.90;;;;;;4937293;29;20204;-50
2021/12/11 10:27:06;;;;;;;75.70;26.03;;;1.90;99.90;;;;;;4954203;28;20201;-59
2021/12/11 10:29:34;;;;;;;65.27;22.63;;;1.90;99.90;;;;;;4956169;28;20610;-54
2021/12/11 10:32:06;;;;;;;53.47;18.27;;;1.90;99.90;;;;;;4953716;28;20193;-53
2021/12/11 10:34:35;;;;;;;37.63;14.00;;;1.90;99.90;;;;;;4953083;29;20681;-57
2021/12/11 10:37:08;;;;;;;42.83;15.50;;;1.90;99.90;;;;;;4952939;28;20193;-54
2021/12/11 10:39:36;;;;;;;37.57;13.73;;;2.00;99.90;;;;;;4951452;28;20204;-54
2021/12/11 10:42:05;;;;;;;38.90;13.73;;;2.00;99.90;;;;;;4954631;28;20224;-52
2021/12/11 10:44:37;;;;;;;30.73;12.00;;;2.00;99.90;;;;;;4949499;28;20212;-52
2021/12/11 10:47:08;;;;;;;34.27;12.67;;;2.00;99.90;;;;;;4962160;28;20683;-51
2021/12/11 10:49:37;;;;;;;37.70;12.63;;;2.00;99.90;;;;;;4955456;28;20819;-50
2021/12/11 10:52:08;;;;;;;32.33;12.07;;;2.00;99.90;;;;;;4961163;28;20202;-49
2021/12/11 10:54:35;;;;;;;31.30;11.87;;;2.00;99.90;;;;;;4954487;28;20203;-54
2021/12/11 10:57:02;;;;;;;30.03;11.40;;;1.80;99.90;;;;;;4961651;28;20201;-51
2021/12/11 10:59:34;;;;;;;35.47;13.07;;;1.80;99.90;;;;;;4963877;28;20216;-48
2021/12/11 11:02:06;;;;;;;35.40;12.97;;;1.70;99.90;;;;;;4966411;28;20192;-55
2021/12/11 11:04:38;;;;;;;38.20;13.33;;;1.70;99.90;;;;;;4948936;28;20222;-50
2021/12/11 11:07:06;;;;;;;31.70;12.13;;;1.60;99.90;;;;;;4964026;28;20205;-50
2021/12/11 11:09:33;;;;;;;52.73;17.97;;;1.70;99.90;;;;;;4963335;28;20192;-52
2021/12/11 11:12:05;;;;;;;45.90;15.90;;;1.70;99.90;;;;;;4963121;28;20208;-49
2021/12/11 11:14:33;;;;;;;38.37;15.07;;;1.70;99.90;;;;;;4959754;28;20184;-51
2021/12/11 11:17:05;;;;;;;41.10;14.10;;;1.70;99.90;;;;;;4963310;28;20308;-50
2021/12/11 11:19:34;;;;;;;39.00;13.83;;;1.60;99.90;;;;;;4964477;28;20661;-55
2021/12/11 11:22:05;;;;;;;34.30;13.30;;;1.50;99.90;;;;;;4964771;28;20204;-57
2021/12/11 11:24:37;;;;;;;34.67;12.67;;;1.50;99.90;;;;;;4965046;28;20239;-57
2021/12/11 11:27:05;;;;;;;40.47;13.47;;;1.40;99.90;;;;;;4979074;28;20211;-53
2021/12/11 11:29:34;;;;;;;34.87;12.50;;;1.40;99.90;;;;;;4961277;28;20228;-55
2021/12/11 11:32:05;;;;;;;34.40;12.67;;;1.30;99.90;;;;;;4957713;28;20681;-56
2021/12/11 11:34:40;;;;;;;43.57;14.63;;;1.30;99.90;;;;;;4961617;28;20197;-59
2021/12/11 11:37:08;;;;;;;39.73;13.90;;;1.30;99.90;;;;;;4964425;28;20207;-54
2021/12/11 11:39:36;;;;;;;37.73;13.13;;;1.40;99.90;;;;;;4963989;28;20235;-57
2021/12/11 11:42:12;;;;;;;35.20;13.50;;;1.30;99.90;;;;;;4944772;29;20208;-57
2021/12/11 11:44:42;;;;;;;31.07;10.67;;;1.30;99.90;;;;;;4950400;28;20240;-56
2021/12/11 11:47:13;;;;;;;39.00;14.00;;;1.30;99.90;;;;;;4963683;28;20227;-56
2021/12/11 11:49:40;;;;;;;33.67;12.40;;;1.30;99.90;;;;;;4960032;28;20636;-54
2021/12/11 11:52:12;;;;;;;40.83;14.63;;;1.30;99.90;;;;;;4971563;28;20203;-56
2021/12/11 11:54:42;;;;;;;43.23;15.43;;;1.30;99.90;;;;;;4972124;28;20208;-57
2021/12/11 11:57:12;;;;;;;35.93;12.97;;;1.30;99.90;;;;;;4950894;28;20244;-54
2021/12/11 11:59:40;;;;;;;35.33;13.73;;;1.40;99.90;;;;;;4962850;28;20556;-54
2021/12/11 12:02:17;;;;;;;33.77;13.23;;;1.40;99.90;;;;;;4963686;28;20264;-54
2021/12/11 12:04:45;;;;;;;40.97;15.27;;;1.40;99.90;;;;;;4961515;28;20541;-57
2021/12/11 12:07:13;;;;;;;38.27;14.77;;;1.30;99.90;;;;;;4960381;28;20212;-55
2021/12/11 12:09:43;;;;;;;37.43;14.93;;;1.20;99.90;;;;;;4939137;29;20995;-56
2021/12/11 12:12:13;;;;;;;38.30;15.00;;;1.10;99.90;;;;;;4955840;29;20201;-55
2021/12/11 12:14:42;;;;;;;45.87;17.27;;;1.10;99.90;;;;;;4954415;28;20208;-53
2021/12/11 12:17:13;;;;;;;56.63;19.13;;;1.10;99.90;;;;;;4936380;29;20216;-55
2021/12/11 12:19:42;;;;;;;41.73;15.97;;;1.10;99.90;;;;;;4950131;28;20197;-56
2021/12/11 12:22:11;;;;;;;44.77;16.67;;;1.00;99.90;;;;;;4956184;29;20212;-56
2021/12/11 12:24:42;;;;;;;39.53;15.50;;;1.00;99.90;;;;;;4954147;28;20768;-57
2021/12/11 12:27:17;;;;;;;48.23;16.10;;;0.90;99.90;;;;;;4956070;29;20201;-55
2021/12/11 12:29:46;;;;;;;37.77;14.80;;;0.80;99.90;;;;;;4954254;28;20197;-55
2021/12/11 12:32:18;;;;;;;40.60;14.77;;;0.80;99.90;;;;;;4956030;29;20778;-54
2021/12/11 12:34:45;;;;;;;39.83;15.60;;;0.70;99.90;;;;;;4955320;28;20200;-56
2021/12/11 12:37:13;;;;;;;48.53;17.20;;;0.70;99.90;;;;;;4955842;28;20256;-56
2021/12/11 12:39:46;;;;;;;45.17;16.10;;;0.70;99.90;;;;;;4953998;28;20197;-51
2021/12/11 12:42:20;;;;;;;47.57;16.33;;;0.60;99.90;;;;;;4955900;28;20193;-56
2021/12/11 12:44:50;;;;;;;46.50;15.60;;;0.60;99.90;;;;;;4961504;28;20662;-54
2021/12/11 12:47:22;;;;;;;46.03;16.73;;;0.60;99.90;;;;;;4960326;28;20305;-53
2021/12/11 12:49:52;;;;;;;53.63;18.03;;;0.50;99.90;;;;;;4961125;28;20562;-53
2021/12/11 12:52:23;;;;;;;43.47;15.93;;;0.50;99.90;;;;;;4949249;29;20201;-56
2021/12/11 12:54:51;;;;;;;35.07;13.90;;;0.40;99.90;;;;;;4965852;28;20215;-53